createdAt,value
2022-08-18T00:00:38.429Z,17.56
2022-08-18T00:03:57.461Z,17.55
2022-08-18T00:06:53.048Z,17.69
2022-08-18T00:09:50.714Z,17.77
2022-08-18T00:12:47.613Z,17.82
2022-08-18T00:15:49.251Z,17.79
2022-08-18T00:18:46.370Z,17.64
2022-08-18T00:21:43.220Z,17.75
2022-08-18T00:24:40.100Z,17.57
2022-08-18T00:27:45.936Z,17.61
2022-08-18T00:30:42.836Z,17.55
2022-08-18T00:33:39.675Z,17.43
2022-08-18T00:36:36.634Z,17.15
2022-08-18T00:39:37.176Z,17.41
2022-08-18T00:42:46.232Z,17.57
2022-08-18T00:45:43.779Z,17.32
2022-08-18T00:48:40.877Z,17.24
2022-08-18T00:51:51.185Z,17.25
2022-08-18T00:54:49.810Z,17.42
2022-08-18T00:57:50.809Z,17.49
2022-08-18T01:00:51.178Z,17.35
2022-08-18T01:03:53.026Z,17.47
2022-08-18T01:07:00.668Z,17.36
2022-08-18T01:10:01.385Z,17.29
2022-08-18T01:12:58.912Z,17.50
2022-08-18T01:15:56.294Z,17.42
2022-08-18T01:19:12.410Z,17.34
2022-08-18T01:22:43.592Z,17.41
2022-08-18T01:25:59.606Z,17.39
2022-08-18T01:29:07.057Z,17.48
2022-08-18T01:32:04.177Z,17.40
2022-08-18T01:35:01.071Z,17.27
2022-08-18T01:37:57.907Z,17.42
2022-08-18T01:41:22.243Z,17.33
2022-08-18T01:44:11.792Z,17.48
2022-08-18T01:47:11.570Z,17.31
2022-08-18T01:50:11.165Z,17.33
2022-08-18T01:53:10.654Z,17.35
2022-08-18T01:56:08.673Z,17.51
2022-08-18T01:59:07.462Z,17.63
2022-08-18T02:02:05.072Z,17.51
2022-08-18T02:05:12.081Z,17.61
2022-08-18T02:08:10.680Z,17.56
2022-08-18T02:11:08.309Z,17.56
2022-08-18T02:14:06.066Z,17.53
2022-08-18T02:17:05.298Z,17.49
2022-08-18T02:20:02.182Z,17.44
2022-08-18T02:23:02.658Z,17.44
2022-08-18T02:25:59.569Z,17.60
2022-08-18T02:28:56.829Z,17.59
2022-08-18T02:31:53.888Z,17.72
2022-08-18T02:34:50.728Z,17.71
2022-08-18T02:37:48.149Z,17.54
2022-08-18T02:40:46.506Z,17.56
2022-08-18T02:43:43.638Z,17.76
2022-08-18T02:46:40.521Z,17.77
2022-08-18T02:49:37.370Z,17.75
2022-08-18T02:52:35.532Z,17.84
2022-08-18T02:55:32.454Z,17.86
2022-08-18T02:58:33.575Z,17.84
2022-08-18T03:01:38.473Z,17.40
2022-08-18T03:04:36.337Z,17.28
2022-08-18T03:07:33.438Z,17.46
2022-08-18T03:10:32.350Z,17.63
2022-08-18T03:13:30.803Z,17.89
2022-08-18T03:16:32.712Z,18.17
2022-08-18T03:19:30.110Z,18.01
2022-08-18T03:22:28.083Z,18.01
2022-08-18T03:25:26.489Z,17.60
2022-08-18T03:28:23.461Z,17.54
2022-08-18T03:31:27.950Z,17.80
2022-08-18T03:34:25.064Z,17.56
2022-08-18T03:37:21.991Z,17.41
2022-08-18T03:40:19.086Z,17.26
2022-08-18T03:43:49.617Z,17.29
2022-08-18T03:46:33.428Z,17.39
2022-08-18T03:49:31.279Z,17.23
2022-08-18T03:52:28.146Z,17.32
2022-08-18T03:55:29.241Z,17.27
2022-08-18T03:58:26.412Z,17.47
2022-08-18T04:01:28.478Z,17.42
2022-08-18T04:04:28.827Z,17.45
2022-08-18T04:07:25.684Z,17.45
2022-08-18T04:10:26.570Z,17.30
2022-08-18T04:13:24.321Z,17.23
2022-08-18T04:16:21.368Z,17.18
2022-08-18T04:19:26.148Z,17.09
2022-08-18T04:22:25.596Z,17.16
2022-08-18T04:25:22.440Z,17.07
2022-08-18T04:28:19.293Z,16.98
2022-08-18T04:31:16.339Z,17.08
2022-08-18T04:34:13.835Z,17.19
2022-08-18T04:37:10.938Z,17.15
2022-08-18T04:40:08.885Z,17.39
2022-08-18T04:43:05.791Z,17.23
2022-08-18T04:46:03.166Z,16.91
2022-08-18T04:49:00.480Z,16.99
2022-08-18T04:52:26.899Z,16.90
2022-08-18T04:55:34.992Z,17.00
2022-08-18T04:58:31.897Z,17.10
2022-08-18T05:01:35.356Z,17.15
2022-08-18T05:04:32.252Z,17.09
2022-08-18T05:07:29.180Z,17.04
2022-08-18T05:10:26.033Z,16.96
2022-08-18T05:13:23.518Z,17.01
2022-08-18T05:16:27.443Z,17.20
2022-08-18T05:19:26.825Z,17.23
2022-08-18T05:22:28.413Z,17.24
2022-08-18T05:25:28.451Z,17.31
2022-08-18T05:28:26.189Z,17.45
2022-08-18T05:31:26.078Z,17.53
2022-08-18T05:34:23.002Z,17.61
2022-08-18T05:37:35.972Z,17.44
2022-08-18T05:40:34.621Z,17.51
2022-08-18T05:43:32.022Z,17.51
2022-08-18T05:46:56.009Z,17.43
2022-08-18T05:49:55.799Z,17.48
2022-08-18T05:52:58.308Z,17.54
2022-08-18T05:56:23.750Z,17.74
2022-08-18T05:59:34.211Z,17.71
2022-08-18T06:02:51.140Z,17.73
2022-08-18T06:06:01.351Z,17.72
2022-08-18T06:09:17.525Z,17.82
2022-08-18T06:12:46.601Z,17.77
2022-08-18T06:16:05.347Z,17.75
2022-08-18T06:19:28.107Z,17.73
2022-08-18T06:22:52.137Z,17.83
2022-08-18T06:26:19.791Z,17.82
2022-08-18T06:30:12.562Z,17.98
2022-08-18T06:33:29.699Z,17.98
2022-08-18T06:37:01.376Z,18.22
2022-08-18T06:39:58.540Z,18.31
2022-08-18T06:42:55.891Z,18.24
2022-08-18T06:45:56.767Z,18.33
2022-08-18T06:49:04.407Z,18.11
2022-08-18T06:52:34.127Z,17.95
2022-08-18T06:55:37.791Z,18.09
2022-08-18T06:58:34.686Z,17.86
2022-08-18T07:01:33.257Z,17.93
2022-08-18T07:04:38.065Z,18.05
2022-08-18T07:07:39.414Z,17.88
2022-08-18T07:10:52.171Z,17.72
2022-08-18T07:14:14.809Z,17.69
2022-08-18T07:17:22.281Z,17.64
2022-08-18T07:20:49.739Z,17.67
2022-08-18T07:24:25.286Z,17.47
2022-08-18T07:27:49.073Z,17.54
2022-08-18T07:31:06.433Z,17.29
2022-08-18T07:34:38.886Z,17.07
2022-08-18T07:37:58.843Z,17.08
2022-08-18T07:41:26.078Z,17.15
2022-08-18T07:44:48.790Z,17.10
2022-08-18T07:48:37.542Z,17.11
2022-08-18T07:51:43.803Z,17.17
2022-08-18T07:54:56.134Z,17.20
2022-08-18T07:58:11.879Z,17.17
2022-08-18T08:01:41.199Z,17.26
2022-08-18T08:04:49.413Z,17.16
2022-08-18T08:08:02.126Z,17.16
2022-08-18T08:11:20.384Z,16.90
2022-08-18T08:14:31.739Z,16.93
2022-08-18T08:17:58.188Z,17.09
2022-08-18T08:21:14.408Z,16.96
2022-08-18T08:24:27.129Z,17.19
2022-08-18T08:27:45.728Z,17.16
2022-08-18T08:31:33.422Z,17.31
2022-08-18T08:35:07.132Z,17.34
2022-08-18T08:38:39.184Z,17.25
2022-08-18T08:42:28.935Z,17.43
2022-08-18T08:45:33.871Z,17.08
2022-08-18T08:48:35.670Z,17.22
2022-08-18T08:51:44.784Z,17.26
2022-08-18T08:54:59.250Z,17.78
2022-08-18T08:58:21.914Z,17.71
2022-08-18T09:01:37.977Z,17.54
2022-08-18T09:05:13.737Z,17.53
2022-08-18T09:08:43.920Z,17.55
2022-08-18T09:12:02.952Z,17.84
2022-08-18T09:15:35.484Z,17.70
2022-08-18T09:19:02.890Z,17.89
2022-08-18T09:22:52.517Z,17.92
2022-08-18T09:25:58.526Z,17.99
2022-08-18T09:29:13.238Z,18.33
2022-08-18T09:32:18.981Z,18.35
2022-08-18T09:35:43.559Z,18.54
2022-08-18T09:39:10.701Z,18.80
2022-08-18T09:42:29.912Z,19.83
2022-08-18T09:45:33.379Z,20.05
2022-08-18T09:48:43.064Z,20.09
2022-08-18T09:51:41.186Z,19.95
2022-08-18T09:55:14.635Z,20.13
2022-08-18T09:58:50.462Z,20.94
2022-08-18T10:01:52.424Z,20.59
2022-08-18T10:04:51.365Z,21.09
2022-08-18T10:08:08.222Z,21.07
2022-08-18T10:11:58.121Z,21.51
2022-08-18T10:15:33.453Z,21.08
2022-08-18T10:18:50.549Z,21.01
2022-08-18T10:22:06.390Z,21.31
2022-08-18T10:25:23.014Z,21.08
2022-08-18T10:28:58.745Z,21.38
2022-08-18T10:32:05.220Z,21.17
2022-08-18T10:35:02.291Z,21.36
2022-08-18T10:38:00.637Z,20.75
2022-08-18T10:41:22.947Z,20.72
2022-08-18T10:44:29.146Z,20.81
2022-08-18T10:51:08.859Z,21.21
2022-08-18T10:54:29.406Z,20.83
2022-08-18T10:57:37.209Z,20.74
2022-08-18T11:00:48.424Z,20.98
2022-08-18T11:04:34.019Z,21.06
2022-08-18T11:07:35.617Z,21.54
2022-08-18T11:11:06.611Z,21.35
2022-08-18T11:14:31.830Z,21.47
2022-08-18T11:18:03.579Z,22.32
2022-08-18T11:24:55.099Z,22.50
2022-08-18T11:27:52.171Z,22.53
2022-08-18T11:30:54.915Z,22.42
2022-08-18T11:33:51.846Z,22.91
2022-08-18T11:37:04.997Z,23.50
2022-08-18T11:43:47.367Z,23.93
2022-08-18T11:46:47.549Z,23.99
2022-08-18T11:50:13.245Z,24.34
2022-08-18T11:53:58.043Z,24.41
2022-08-18T12:04:31.782Z,24.85
2022-08-18T12:07:35.297Z,25.08
2022-08-18T12:10:32.442Z,24.87
2022-08-18T12:13:29.708Z,24.89
2022-08-18T12:16:40.189Z,25.03
2022-08-18T12:19:43.642Z,25.10
2022-08-18T12:22:45.225Z,24.91
2022-08-18T12:25:43.340Z,25.05
2022-08-18T12:28:40.347Z,24.92
2022-08-18T12:31:42.465Z,25.13
2022-08-18T12:34:45.893Z,25.79
2022-08-18T12:38:11.148Z,24.60
2022-08-18T12:41:03.075Z,24.94
2022-08-18T12:44:00.105Z,25.10
2022-08-18T12:46:57.470Z,24.57
2022-08-18T12:49:56.801Z,24.66
2022-08-18T12:52:53.905Z,24.51
2022-08-18T12:55:52.859Z,24.09
2022-08-18T12:58:50.664Z,24.52
2022-08-18T13:01:47.552Z,24.11
2022-08-18T13:04:44.898Z,23.85
2022-08-18T13:07:44.298Z,24.67
2022-08-18T13:10:45.441Z,24.59
2022-08-18T13:13:44.382Z,24.01
2022-08-18T13:16:53.740Z,24.06
2022-08-18T13:19:51.959Z,23.99
2022-08-18T13:22:52.533Z,23.91
2022-08-18T13:25:50.292Z,24.05
2022-08-18T13:28:50.862Z,24.20
2022-08-18T13:31:58.172Z,24.24
2022-08-18T13:34:56.539Z,24.58
2022-08-18T13:37:55.265Z,24.74
2022-08-18T13:40:55.717Z,24.41
2022-08-18T13:43:52.583Z,24.09
2022-08-18T13:46:52.132Z,24.08
2022-08-18T13:49:58.206Z,23.79
2022-08-18T13:52:57.231Z,24.30
2022-08-18T13:55:57.376Z,24.61
2022-08-18T13:58:55.438Z,25.18
2022-08-18T14:01:53.328Z,24.71
2022-08-18T14:04:51.855Z,24.72
2022-08-18T14:07:49.174Z,25.10
2022-08-18T14:10:53.068Z,25.48
2022-08-18T14:13:49.982Z,24.88
2022-08-18T14:16:47.765Z,25.24
2022-08-18T14:20:03.121Z,25.14
2022-08-18T14:23:22.015Z,25.65
2022-08-18T14:26:40.392Z,25.34
2022-08-18T14:29:46.005Z,25.23
2022-08-18T14:32:51.314Z,25.12
2022-08-18T14:36:06.335Z,24.91
2022-08-18T14:39:06.054Z,25.38
2022-08-18T14:42:05.700Z,25.48
2022-08-18T14:45:18.032Z,25.06
2022-08-18T14:48:27.405Z,25.88
2022-08-18T14:51:27.211Z,25.17
2022-08-18T14:54:28.272Z,24.95
2022-08-18T14:57:25.807Z,24.79
2022-08-18T15:00:22.920Z,24.75
2022-08-18T15:03:28.228Z,24.82
2022-08-18T15:06:28.661Z,25.05
2022-08-18T15:09:27.261Z,25.02
2022-08-18T15:12:24.934Z,24.95
2022-08-18T15:15:22.843Z,24.93
2022-08-18T15:18:22.820Z,25.07
2022-08-18T15:21:38.987Z,25.57
2022-08-18T15:24:59.685Z,25.20
2022-08-18T15:27:58.113Z,25.50
2022-08-18T15:34:12.713Z,25.43
2022-08-18T15:37:10.173Z,24.43
2022-08-18T15:40:30.349Z,24.58
2022-08-18T15:43:32.704Z,24.87
2022-08-18T15:46:34.836Z,24.69
2022-08-18T15:49:33.801Z,24.89
2022-08-18T15:52:30.732Z,24.47
2022-08-18T15:55:32.989Z,24.60
2022-08-18T15:58:32.847Z,24.75
2022-08-18T16:01:33.015Z,24.62
2022-08-18T16:04:29.936Z,24.77
2022-08-18T16:07:40.074Z,24.96
2022-08-18T16:10:41.891Z,25.01
2022-08-18T16:13:39.946Z,24.72
2022-08-18T16:16:37.131Z,24.76
2022-08-18T16:19:34.025Z,24.78
2022-08-18T16:22:32.974Z,24.77
2022-08-18T16:25:29.844Z,24.85
2022-08-18T16:28:34.559Z,24.72
2022-08-18T16:31:32.284Z,24.86
2022-08-18T16:34:30.937Z,24.63
2022-08-18T16:37:28.097Z,24.04
2022-08-18T16:40:28.020Z,23.98
2022-08-18T16:43:27.172Z,24.28
2022-08-18T16:46:27.175Z,23.99
2022-08-18T16:49:24.031Z,24.06
2022-08-18T16:52:21.168Z,23.78
2022-08-18T16:55:18.140Z,23.67
2022-08-18T16:58:33.873Z,23.84
2022-08-18T17:01:49.692Z,23.93
2022-08-18T17:04:46.582Z,23.74
2022-08-18T17:07:43.672Z,23.97
2022-08-18T17:10:41.428Z,23.49
2022-08-18T17:13:40.127Z,23.62
2022-08-18T17:16:38.574Z,23.23
2022-08-18T17:19:35.503Z,23.13
2022-08-18T17:22:32.340Z,23.20
2022-08-18T17:25:30.860Z,23.33
2022-08-18T17:28:45.670Z,23.43
2022-08-18T17:31:56.630Z,23.06
2022-08-18T17:35:04.493Z,22.92
2022-08-18T17:38:29.793Z,23.00
2022-08-18T17:41:27.918Z,22.96
2022-08-18T17:44:31.245Z,23.14
2022-08-18T17:47:54.295Z,23.24
2022-08-18T17:51:32.507Z,22.70
2022-08-18T17:54:42.050Z,22.86
2022-08-18T17:57:58.651Z,22.87
2022-08-18T18:00:55.827Z,22.42
2022-08-18T18:03:53.902Z,22.84
2022-08-18T18:06:52.787Z,22.33
2022-08-18T18:10:26.318Z,22.18
2022-08-18T18:13:28.609Z,22.32
2022-08-18T18:16:29.569Z,22.04
2022-08-18T18:19:30.631Z,22.28
2022-08-18T18:22:29.751Z,22.08
2022-08-18T18:25:34.483Z,22.53
2022-08-18T18:28:35.953Z,22.33
2022-08-18T18:31:33.048Z,22.05
2022-08-18T18:34:39.312Z,22.19
2022-08-18T18:38:23.099Z,22.05
2022-08-18T18:41:27.837Z,21.86
2022-08-18T18:44:30.769Z,21.92
2022-08-18T18:47:57.676Z,21.95
2022-08-18T18:51:11.835Z,21.72
2022-08-18T18:54:49.796Z,21.68
2022-08-18T18:58:18.438Z,21.66
2022-08-18T19:01:39.102Z,21.96
2022-08-18T19:04:56.654Z,21.91
2022-08-18T19:08:12.806Z,21.77
2022-08-18T19:11:33.168Z,21.42
2022-08-18T19:14:39.355Z,21.33
2022-08-18T19:17:44.730Z,21.24
2022-08-18T19:22:02.201Z,21.47
2022-08-18T19:24:21.781Z,21.37
2022-08-18T19:27:42.827Z,21.44
2022-08-18T19:30:44.877Z,21.50
2022-08-18T19:33:50.796Z,21.25
2022-08-18T19:37:12.387Z,21.28
2022-08-18T19:40:24.068Z,21.41
2022-08-18T19:43:51.932Z,21.24
2022-08-18T19:46:54.389Z,21.22
2022-08-18T19:50:31.499Z,20.99
2022-08-18T19:54:13.294Z,21.13
2022-08-18T19:57:49.812Z,21.08
2022-08-18T20:00:49.532Z,20.75
2022-08-18T20:04:11.096Z,20.71
2022-08-18T20:07:47.185Z,20.76
2022-08-18T20:11:15.418Z,20.80
2022-08-18T20:14:16.798Z,20.36
2022-08-18T20:17:16.894Z,20.54
2022-08-18T20:20:17.551Z,20.43
2022-08-18T20:23:37.633Z,20.42
2022-08-18T20:26:40.037Z,20.48
2022-08-18T20:29:37.106Z,20.66
2022-08-18T20:32:35.684Z,20.39
2022-08-18T20:35:57.111Z,20.36
2022-08-18T20:38:58.190Z,20.31
2022-08-18T20:41:55.859Z,20.40
2022-08-18T20:44:59.414Z,20.27
2022-08-18T20:48:16.316Z,20.34
2022-08-18T20:51:19.788Z,20.29
2022-08-18T20:55:03.045Z,20.24
2022-08-18T20:58:20.601Z,20.20
2022-08-18T21:01:18.187Z,20.17
2022-08-18T21:04:15.067Z,20.20
2022-08-18T21:07:37.860Z,20.28
2022-08-18T21:10:34.931Z,20.11
2022-08-18T21:13:42.429Z,20.05
2022-08-18T21:16:45.493Z,20.12
2022-08-18T21:19:43.370Z,19.94
2022-08-18T21:22:44.916Z,19.91
2022-08-18T21:25:55.731Z,20.05
2022-08-18T21:29:14.445Z,19.92
2022-08-18T21:32:37.009Z,19.93
2022-08-18T21:35:38.070Z,19.89
2022-08-18T21:38:36.350Z,19.86
2022-08-18T21:41:40.102Z,20.00
2022-08-18T21:44:44.384Z,19.87
2022-08-18T21:48:10.893Z,19.91
2022-08-18T21:51:08.311Z,19.80
2022-08-18T21:54:05.431Z,19.76
2022-08-18T21:57:26.720Z,19.80
2022-08-18T22:00:42.886Z,19.85
2022-08-18T22:04:24.572Z,19.98
2022-08-18T22:07:34.546Z,19.93
2022-08-18T22:10:51.282Z,20.06
2022-08-18T22:14:00.483Z,20.24
2022-08-18T22:17:43.233Z,19.86
2022-08-18T22:20:52.592Z,19.96
2022-08-18T22:24:10.572Z,19.81
2022-08-18T22:27:19.548Z,19.82
2022-08-18T22:30:16.484Z,19.82
2022-08-18T22:33:13.335Z,19.80
2022-08-18T22:36:15.204Z,19.94
2022-08-18T22:39:18.151Z,19.70
2022-08-18T22:42:17.878Z,19.80
2022-08-18T22:45:14.768Z,19.82
2022-08-18T22:48:11.632Z,19.70
2022-08-18T22:51:09.013Z,19.78
2022-08-18T22:54:09.873Z,19.65
2022-08-18T22:57:06.729Z,19.57
2022-08-18T23:00:12.815Z,19.72
2022-08-18T23:03:09.793Z,19.66
2022-08-18T23:06:08.917Z,19.71
2022-08-18T23:09:06.108Z,19.71
2022-08-18T23:12:13.539Z,19.68
2022-08-18T23:15:11.550Z,19.66
2022-08-18T23:18:08.408Z,19.83
2022-08-18T23:21:05.477Z,19.68
2022-08-18T23:24:04.840Z,19.68
2022-08-18T23:27:01.726Z,19.68
2022-08-18T23:29:59.586Z,19.54
2022-08-18T23:32:56.406Z,19.58
2022-08-18T23:35:53.799Z,19.69
2022-08-18T23:38:50.628Z,19.49
2022-08-18T23:41:47.878Z,19.57
2022-08-18T23:44:45.775Z,19.48
2022-08-18T23:47:43.393Z,19.56
2022-08-18T23:50:43.351Z,19.50
2022-08-18T23:53:40.494Z,19.59
2022-08-18T23:56:38.006Z,19.56
2022-08-18T23:59:34.881Z,19.59
